Time;durP1;ratioP1;P1;durP2;ratioP2;P2;SDS_P1;SDS_P2;PMS_P1;PMS_P2;Temp;Humidity;BMP_temperature;BMP_pressure;BME280_temperature;BME280_humidity;BME280_pressure;Samples;Min_cycle;Max_cycle;Signal;HPM_P1;HPM_P2
2022/06/24 00:01:25;;;;;;;2.03;0.83;;;17.10;99.90;;;;;;5002554;28;20234;-85
2022/06/24 00:03:51;;;;;;;0.73;0.60;;;17.10;99.90;;;;;;5001958;28;20183;-85
2022/06/24 00:06:17;;;;;;;4.03;0.87;;;17.10;99.90;;;;;;5001190;28;20218;-85
2022/06/24 00:09:05;;;;;;;3.83;0.90;;;17.10;99.90;;;;;;5002347;28;20641;-84
2022/06/24 00:11:31;;;;;;;7.90;1.23;;;17.10;99.90;;;;;;5012636;28;20180;-85
2022/06/24 00:14:08;;;;;;;3.13;0.90;;;17.10;99.90;;;;;;5018335;28;20204;-85
2022/06/24 00:16:53;;;;;;;4.30;1.20;;;17.00;99.90;;;;;;5017513;28;20202;-84
2022/06/24 00:19:20;;;;;;;2.30;0.90;;;17.00;99.90;;;;;;5016072;28;20183;-85
2022/06/24 00:22:08;;;;;;;4.43;1.23;;;17.00;99.90;;;;;;5006082;28;20222;-86
2022/06/24 00:24:37;;;;;;;4.80;0.80;;;17.00;99.90;;;;;;5004918;28;20168;-86
2022/06/24 00:27:04;;;;;;;3.17;1.10;;;17.00;99.90;;;;;;5005832;28;20180;-85
2022/06/24 00:29:32;;;;;;;5.27;0.97;;;17.00;99.90;;;;;;5005211;28;20566;-85
2022/06/24 00:32:08;;;;;;;2.23;1.03;;;16.90;99.90;;;;;;5007989;28;20579;-86
2022/06/24 00:34:36;;;;;;;1.70;0.90;;;16.90;99.90;;;;;;5008314;28;20179;-85
2022/06/24 00:37:28;;;;;;;3.87;0.97;;;17.00;99.90;;;;;;5004944;28;20183;-84
2022/06/24 00:39:57;;;;;;;3.50;1.37;;;16.90;99.90;;;;;;5005499;28;20249;-85
2022/06/24 00:42:23;;;;;;;4.63;0.90;;;16.90;99.90;;;;;;5008271;28;20190;-85
2022/06/24 00:45:24;;;;;;;1.27;0.90;;;17.00;99.90;;;;;;5009487;28;20212;-85
2022/06/24 00:47:52;;;;;;;2.57;0.80;;;17.00;99.90;;;;;;5008940;28;20278;-85
2022/06/24 00:50:24;;;;;;;2.37;1.13;;;17.00;99.90;;;;;;5008789;28;20270;-85
2022/06/24 00:52:55;;;;;;;1.10;0.53;;;16.90;99.90;;;;;;5008254;28;20168;-86
2022/06/24 00:55:26;;;;;;;3.87;1.10;;;16.90;99.90;;;;;;5008248;28;20187;-86
2022/06/24 00:57:51;;;;;;;2.00;1.10;;;16.90;99.90;;;;;;5008213;28;20179;-85
2022/06/24 01:00:18;;;;;;;5.43;1.27;;;16.90;99.90;;;;;;5007307;28;20215;-86
2022/06/24 01:02:45;;;;;;;2.80;0.80;;;16.90;99.90;;;;;;5007988;28;20176;-87
2022/06/24 01:05:11;;;;;;;1.60;0.80;;;16.90;99.90;;;;;;5007383;28;20187;-86
2022/06/24 01:07:39;;;;;;;2.87;0.90;;;16.90;99.90;;;;;;5006675;28;20549;-86
2022/06/24 01:10:07;;;;;;;5.53;0.93;;;16.90;99.90;;;;;;5006754;28;20204;-86
2022/06/24 01:12:34;;;;;;;2.87;1.00;;;16.90;99.90;;;;;;5006943;28;20207;-85
2022/06/24 01:15:00;;;;;;;3.67;1.03;;;16.90;99.90;;;;;;5008199;28;20282;-86
2022/06/24 01:17:26;;;;;;;3.17;1.23;;;16.90;99.90;;;;;;5005903;28;20270;-86
2022/06/24 01:19:52;;;;;;;5.17;0.90;;;16.90;99.90;;;;;;5007354;28;20192;-86
2022/06/24 01:22:25;;;;;;;2.13;0.90;;;16.90;99.90;;;;;;5007312;28;20176;-86
2022/06/24 01:24:52;;;;;;;1.87;0.90;;;16.90;99.90;;;;;;5005787;28;20529;-86
2022/06/24 01:27:18;;;;;;;2.67;1.00;;;17.00;99.90;;;;;;5006008;28;20184;-85
2022/06/24 01:29:44;;;;;;;3.37;0.90;;;16.90;99.90;;;;;;5007953;28;20188;-86
2022/06/24 01:32:10;;;;;;;3.10;0.87;;;16.90;99.90;;;;;;5006914;28;20179;-87
2022/06/24 01:34:37;;;;;;;1.97;0.60;;;;;;;;;;5007807;28;20195;-87
2022/06/24 01:37:03;;;;;;;4.60;1.03;;;16.90;99.90;;;;;;5007931;28;20201;-86
2022/06/24 01:39:29;;;;;;;1.37;0.83;;;16.90;99.90;;;;;;5008493;28;20195;-87
2022/06/24 01:41:55;;;;;;;3.50;1.00;;;16.90;99.90;;;;;;5007005;28;20606;-86
2022/06/24 01:44:22;;;;;;;2.53;1.00;;;17.00;99.90;;;;;;5008273;28;20194;-87
2022/06/24 01:46:48;;;;;;;2.27;0.90;;;17.00;99.90;;;;;;5007296;28;20183;-87
2022/06/24 01:49:14;;;;;;;4.30;1.03;;;17.00;99.90;;;;;;5009517;28;20176;-86
2022/06/24 01:51:42;;;;;;;2.43;0.87;;;17.00;99.90;;;;;;5020225;28;20183;-85
2022/06/24 01:54:08;;;;;;;2.27;0.80;;;17.00;99.90;;;;;;5021552;28;20186;-85
2022/06/24 01:56:34;;;;;;;2.83;1.00;;;16.90;99.90;;;;;;5008481;28;20187;-86
2022/06/24 01:59:00;;;;;;;2.77;0.90;;;16.90;99.90;;;;;;5007180;28;20179;-86
2022/06/24 02:01:26;;;;;;;2.60;0.80;;;;;;;;;;5008599;28;20237;-85
2022/06/24 02:03:52;;;;;;;2.20;0.77;;;17.00;99.90;;;;;;5007181;28;20190;-86
2022/06/24 02:06:18;;;;;;;2.97;0.77;;;17.00;99.90;;;;;;5006412;28;20252;-86
2022/06/24 02:08:44;;;;;;;2.13;0.57;;;17.00;99.90;;;;;;5011233;28;20187;-84
2022/06/24 02:13:57;;;;;;;1.80;0.83;;;17.00;99.90;;;;;;5002134;28;20183;-86
2022/06/24 02:16:24;;;;;;;2.27;1.00;;;17.00;99.90;;;;;;5002726;28;20278;-85
2022/06/24 02:18:50;;;;;;;1.90;0.80;;;17.00;99.90;;;;;;5015829;28;20180;-86
2022/06/24 02:21:16;;;;;;;4.70;0.90;;;17.00;99.90;;;;;;5018955;28;20187;-86
2022/06/24 02:23:43;;;;;;;2.60;1.10;;;;;;;;;;5006895;28;20246;-86
2022/06/24 02:26:09;;;;;;;2.53;1.10;;;17.00;99.90;;;;;;5006376;28;20185;-86
2022/06/24 02:28:35;;;;;;;1.90;0.73;;;17.00;99.90;;;;;;5003909;28;20180;-85
2022/06/24 02:31:02;;;;;;;4.73;1.10;;;17.00;99.90;;;;;;5004466;28;20208;-86
2022/06/24 02:33:29;;;;;;;1.47;0.80;;;17.00;99.90;;;;;;5004987;28;20215;-86
2022/06/24 02:35:55;;;;;;;3.73;1.00;;;17.00;99.90;;;;;;5005105;28;20200;-86
2022/06/24 02:38:21;;;;;;;1.43;0.70;;;17.00;99.90;;;;;;5004632;28;20189;-87
2022/06/24 02:40:47;;;;;;;1.77;0.70;;;17.10;99.90;;;;;;5004170;28;20222;-86
2022/06/24 02:43:28;;;;;;;1.03;0.70;;;17.10;99.90;;;;;;5004581;28;20183;-86
2022/06/24 02:45:59;;;;;;;2.47;1.20;;;17.10;99.90;;;;;;5005431;28;20207;-86
2022/06/24 02:48:26;;;;;;;1.40;0.80;;;17.10;99.90;;;;;;5004948;28;20212;-86
2022/06/24 02:50:57;;;;;;;2.50;1.10;;;17.00;99.90;;;;;;5006211;28;20199;-86
2022/06/24 02:53:23;;;;;;;2.97;1.03;;;17.10;99.90;;;;;;5006037;28;20181;-86
2022/06/24 02:55:52;;;;;;;3.17;0.77;;;17.10;99.90;;;;;;5005850;28;20751;-85
2022/06/24 02:58:18;;;;;;;1.90;0.93;;;17.10;99.90;;;;;;5006070;28;20251;-86
2022/06/24 03:00:44;;;;;;;4.43;0.83;;;17.10;99.90;;;;;;5005604;28;20225;-86
2022/06/24 03:03:12;;;;;;;1.63;0.90;;;17.10;99.90;;;;;;5006046;28;20176;-87
2022/06/24 03:05:38;;;;;;;4.17;1.13;;;17.10;99.90;;;;;;5005978;28;20183;-86
2022/06/24 03:08:05;;;;;;;2.30;1.13;;;17.10;99.90;;;;;;5005909;28;20182;-86
2022/06/24 03:10:31;;;;;;;1.73;0.80;;;17.20;99.90;;;;;;5005751;28;20208;-86
2022/06/24 03:12:56;;;;;;;3.17;0.93;;;17.20;99.90;;;;;;5006823;28;20197;-86
2022/06/24 03:15:23;;;;;;;2.90;1.07;;;;;;;;;;5007154;28;20207;-86
2022/06/24 03:17:49;;;;;;;3.00;0.90;;;17.30;99.90;;;;;;5007577;28;20193;-86
2022/06/24 03:20:15;;;;;;;1.30;0.77;;;17.30;99.90;;;;;;5006959;28;20212;-86
2022/06/24 03:22:41;;;;;;;3.13;1.10;;;17.30;99.90;;;;;;5009065;28;20169;-86
2022/06/24 03:25:07;;;;;;;3.63;1.10;;;17.30;99.90;;;;;;5014027;28;20192;-84
2022/06/24 03:27:34;;;;;;;3.37;1.13;;;17.30;99.90;;;;;;5017911;28;20175;-85
2022/06/24 03:30:00;;;;;;;1.93;0.90;;;17.30;99.90;;;;;;5014770;28;20220;-86
2022/06/24 03:32:26;;;;;;;2.47;0.87;;;17.30;99.90;;;;;;5006220;28;20275;-86
2022/06/24 03:34:51;;;;;;;3.73;0.97;;;17.30;99.90;;;;;;5007101;28;20188;-86
2022/06/24 03:37:17;;;;;;;3.10;1.00;;;17.30;99.90;;;;;;5007581;28;20641;-86
2022/06/24 03:39:43;;;;;;;2.23;1.07;;;17.40;99.90;;;;;;5007279;28;20205;-86
2022/06/24 03:42:09;;;;;;;5.33;1.10;;;17.40;99.90;;;;;;5007166;28;20292;-86
2022/06/24 03:44:35;;;;;;;5.00;1.53;;;;;;;;;;5012599;28;20180;-86
2022/06/24 03:47:03;;;;;;;3.00;1.33;;;17.50;99.90;;;;;;5004547;28;20191;-86
2022/06/24 03:49:29;;;;;;;4.90;1.30;;;17.50;99.90;;;;;;5004308;28;20211;-86
2022/06/24 03:51:55;;;;;;;3.57;1.30;;;17.40;99.90;;;;;;5004320;28;20185;-85
2022/06/24 03:54:21;;;;;;;3.07;1.00;;;17.60;99.90;;;;;;5005263;28;20169;-86
2022/06/24 03:56:47;;;;;;;3.33;1.00;;;17.60;99.90;;;;;;5004301;28;20181;-86
2022/06/24 03:59:13;;;;;;;3.20;0.90;;;17.60;99.90;;;;;;5004472;28;20184;-86
2022/06/24 04:01:39;;;;;;;2.93;1.57;;;17.60;99.90;;;;;;5005166;28;20272;-86
2022/06/24 04:04:05;;;;;;;4.57;1.40;;;;;;;;;;5005094;28;20638;-85
2022/06/24 04:06:31;;;;;;;4.73;1.33;;;17.70;99.90;;;;;;5004018;28;20172;-85
2022/06/24 04:08:57;;;;;;;4.60;1.40;;;17.70;99.90;;;;;;5005002;28;20240;-85
2022/06/24 04:11:23;;;;;;;6.37;1.33;;;17.70;99.90;;;;;;5005431;28;20285;-84
2022/06/24 04:13:49;;;;;;;6.87;1.20;;;17.80;99.90;;;;;;5004821;28;20176;-84
2022/06/24 04:16:15;;;;;;;5.43;1.23;;;17.80;99.90;;;;;;5006889;28;20211;-85
2022/06/24 04:18:41;;;;;;;6.23;1.50;;;17.80;99.90;;;;;;5005143;28;20243;-85
2022/06/24 04:21:14;;;;;;;5.43;1.60;;;17.80;99.90;;;;;;5004759;28;20279;-85
2022/06/24 04:23:40;;;;;;;3.83;1.50;;;17.90;99.90;;;;;;5008391;28;20221;-84
2022/06/24 04:26:07;;;;;;;6.17;1.70;;;17.80;99.90;;;;;;5011399;28;20172;-85
2022/06/24 04:28:33;;;;;;;6.50;1.70;;;17.80;99.90;;;;;;5008880;28;20183;-85
2022/06/24 04:30:59;;;;;;;7.60;2.10;;;17.80;99.90;;;;;;5005275;28;20231;-85
2022/06/24 04:33:25;;;;;;;4.63;2.13;;;17.80;99.90;;;;;;5005933;28;20184;-84
2022/06/24 04:35:50;;;;;;;10.03;2.77;;;17.80;99.90;;;;;;5006123;28;20211;-84
2022/06/24 04:38:16;;;;;;;8.97;2.07;;;17.80;99.90;;;;;;5007930;28;20241;-85
2022/06/24 04:40:42;;;;;;;6.73;1.97;;;;;;;;;;5006262;28;20222;-84
2022/06/24 04:43:08;;;;;;;6.43;2.27;;;17.80;99.90;;;;;;5007380;28;20180;-84
2022/06/24 04:45:34;;;;;;;5.50;1.67;;;;;;;;;;5007469;28;20211;-84
2022/06/24 04:48:00;;;;;;;10.63;2.00;;;17.90;99.90;;;;;;5008939;28;20180;-85
2022/06/24 04:50:26;;;;;;;9.60;2.20;;;17.90;99.90;;;;;;5009216;28;20235;-85
2022/06/24 04:52:52;;;;;;;10.67;2.50;;;18.00;99.90;;;;;;5009059;28;20180;-84
2022/06/24 04:55:19;;;;;;;5.67;2.10;;;;;;;;;;5007212;28;20191;-86
2022/06/24 04:57:45;;;;;;;7.27;2.03;;;18.00;99.90;;;;;;5007753;28;20180;-86
2022/06/24 05:00:11;;;;;;;5.83;1.77;;;17.90;99.90;;;;;;5010201;28;20209;-84
2022/06/24 05:02:37;;;;;;;5.80;1.90;;;17.90;99.90;;;;;;5015870;28;20163;-84
2022/06/24 05:05:03;;;;;;;9.70;2.10;;;18.00;99.90;;;;;;5013794;28;20262;-85
2022/06/24 05:07:29;;;;;;;5.60;2.03;;;18.00;99.90;;;;;;5003916;28;20199;-86
2022/06/24 05:09:55;;;;;;;7.80;2.30;;;;;;;;;;5004187;28;20200;-86
2022/06/24 05:12:21;;;;;;;5.03;2.53;;;17.80;99.90;;;;;;5001841;28;20243;-86
2022/06/24 05:14:47;;;;;;;6.33;2.20;;;17.70;99.90;;;;;;5001402;28;20221;-86
2022/06/24 05:17:13;;;;;;;9.53;2.07;;;17.60;99.90;;;;;;5000757;28;20183;-86
2022/06/24 05:19:38;;;;;;;8.03;2.43;;;17.50;99.90;;;;;;5002221;28;20207;-86
2022/06/24 05:22:04;;;;;;;5.93;2.10;;;;;;;;;;5002417;28;20204;-84
2022/06/24 05:24:30;;;;;;;8.03;2.50;;;17.50;99.90;;;;;;5005103;28;20634;-85
2022/06/24 05:26:56;;;;;;;9.73;3.03;;;;;;;;;;5007847;28;20199;-85
2022/06/24 05:29:22;;;;;;;10.10;3.00;;;17.20;99.90;;;;;;5007338;28;20180;-86
2022/06/24 05:31:48;;;;;;;7.70;2.10;;;17.60;99.90;;;;;;5005513;28;20210;-88
2022/06/24 05:34:14;;;;;;;8.47;3.03;;;;;;;;;;5003599;28;20180;-87
2022/06/24 05:36:41;;;;;;;5.77;2.20;;;17.40;99.90;;;;;;5003192;28;20178;-87
2022/06/24 05:39:07;;;;;;;8.00;2.30;;;17.60;99.90;;;;;;5004502;28;20184;-87
2022/06/24 05:41:34;;;;;;;12.00;2.73;;;17.60;99.90;;;;;;5005994;28;20208;-85
2022/06/24 05:44:00;;;;;;;7.20;2.40;;;;;;;;;;5008404;28;20176;-85
2022/06/24 05:46:26;;;;;;;9.87;2.73;;;17.40;99.90;;;;;;5008074;28;20240;-85
2022/06/24 05:48:52;;;;;;;9.17;2.30;;;17.40;99.90;;;;;;5007978;28;20176;-85
2022/06/24 05:51:18;;;;;;;7.47;2.07;;;17.50;99.90;;;;;;5007041;28;20259;-85
2022/06/24 05:56:31;;;;;;;7.13;2.37;;;17.40;99.90;;;;;;5009282;28;20190;-86
2022/06/24 05:58:57;;;;;;;8.07;1.73;;;17.50;99.90;;;;;;5007412;28;20187;-87
2022/06/24 06:01:24;;;;;;;7.47;2.20;;;17.50;99.90;;;;;;5008109;28;20284;-86
2022/06/24 06:03:50;;;;;;;7.97;2.60;;;17.40;99.90;;;;;;5009356;28;20178;-86
2022/06/24 06:06:16;;;;;;;4.43;1.90;;;;;;;;;;5007448;28;20537;-86
2022/06/24 06:08:42;;;;;;;7.67;1.93;;;17.40;99.90;;;;;;5007161;28;20175;-86
2022/06/24 06:11:18;;;;;;;12.17;2.00;;;17.30;99.90;;;;;;5007031;28;20213;-86
2022/06/24 06:13:46;;;;;;;4.27;2.10;;;17.50;99.90;;;;;;5006900;28;20179;-86
2022/06/24 06:16:12;;;;;;;9.83;2.20;;;17.50;99.90;;;;;;5003379;28;20196;-86
2022/06/24 06:18:38;;;;;;;8.97;2.43;;;17.40;99.90;;;;;;5002235;28;20179;-86
2022/06/24 06:21:07;;;;;;;7.67;2.30;;;17.40;99.90;;;;;;5001054;28;20554;-86
2022/06/24 06:23:34;;;;;;;9.40;2.80;;;17.50;99.90;;;;;;5000097;28;20182;-86
2022/06/24 06:26:01;;;;;;;7.87;2.63;;;17.60;99.90;;;;;;4999499;28;20598;-85
2022/06/24 06:28:27;;;;;;;11.33;2.97;;;;;;;;;;4997720;28;20578;-83
2022/06/24 06:30:53;;;;;;;10.57;3.30;;;17.40;99.90;;;;;;5004032;28;20224;-85
2022/06/24 06:33:19;;;;;;;6.40;1.97;;;;;;;;;;5018139;28;20192;-85
2022/06/24 06:35:45;;;;;;;7.13;2.53;;;17.60;99.90;;;;;;5020971;28;20195;-85
2022/06/24 06:38:11;;;;;;;7.80;2.73;;;;;;;;;;5018807;28;20175;-85
2022/06/24 06:40:38;;;;;;;6.13;2.10;;;17.80;99.90;;;;;;5014248;28;20216;-86
2022/06/24 06:43:05;;;;;;;7.67;2.47;;;17.80;99.90;;;;;;5007649;28;20173;-86
2022/06/24 06:45:32;;;;;;;9.97;2.93;;;;;;;;;;5006521;28;20271;-86
2022/06/24 06:47:58;;;;;;;5.73;2.57;;;17.80;99.90;;;;;;5006363;28;20187;-86
2022/06/24 06:50:24;;;;;;;7.50;2.50;;;;;;;;;;5008954;28;20219;-86
2022/06/24 06:52:50;;;;;;;9.40;2.57;;;18.20;99.90;;;;;;5008494;28;20180;-86
2022/06/24 06:55:16;;;;;;;9.30;2.40;;;;;;;;;;5009455;28;20179;-85
2022/06/24 06:57:41;;;;;;;10.37;2.97;;;18.40;99.90;;;;;;5008095;28;20177;-86
2022/06/24 07:00:09;;;;;;;6.70;2.77;;;18.30;99.90;;;;;;5009836;28;20205;-86
2022/06/24 07:02:36;;;;;;;8.57;2.40;;;18.20;99.90;;;;;;5009335;28;20198;-86
2022/06/24 07:05:02;;;;;;;8.43;2.63;;;;;;;;;;5009053;28;20654;-86
2022/06/24 07:07:28;;;;;;;8.23;2.63;;;;;;;;;;5006156;28;20187;-86
2022/06/24 07:09:54;;;;;;;5.70;2.17;;;18.30;99.90;;;;;;5005219;28;20201;-86
2022/06/24 07:12:21;;;;;;;6.20;2.37;;;17.80;99.90;;;;;;5006659;28;20186;-86
2022/06/24 07:14:47;;;;;;;6.57;2.50;;;;;;;;;;5007122;28;20661;-86
2022/06/24 07:17:13;;;;;;;6.83;2.37;;;17.90;99.90;;;;;;5006953;28;20617;-86
2022/06/24 07:19:39;;;;;;;7.03;2.50;;;;;;;;;;5007963;28;20209;-86
2022/06/24 07:22:05;;;;;;;7.40;2.57;;;18.20;99.90;;;;;;5009404;28;20207;-85
2022/06/24 07:24:30;;;;;;;9.23;2.53;;;18.30;99.90;;;;;;5005875;28;20191;-85
2022/06/24 07:26:56;;;;;;;6.30;2.30;;;;;;;;;;5005643;28;20179;-85
2022/06/24 07:29:22;;;;;;;5.37;2.43;;;18.10;99.90;;;;;;5006630;28;20243;-84
2022/06/24 07:31:48;;;;;;;8.27;2.80;;;;;;;;;;5008511;28;20665;-86
2022/06/24 07:34:15;;;;;;;7.43;2.90;;;18.30;99.90;;;;;;5008615;28;20180;-85
2022/06/24 07:36:41;;;;;;;7.40;2.87;;;;;;;;;;5007270;28;20226;-85
2022/06/24 07:39:07;;;;;;;8.83;2.40;;;18.40;99.90;;;;;;5008939;28;20211;-85
2022/06/24 07:41:33;;;;;;;10.83;3.20;;;18.00;99.90;;;;;;5007628;28;20208;-84
2022/06/24 07:43:59;;;;;;;7.33;2.70;;;18.20;99.90;;;;;;5005970;28;20256;-85
2022/06/24 07:46:26;;;;;;;7.63;2.63;;;18.20;99.90;;;;;;5006545;28;20183;-85
2022/06/24 07:48:52;;;;;;;7.63;3.10;;;;;;;;;;5006390;28;20237;-86
2022/06/24 07:51:19;;;;;;;9.60;2.70;;;18.20;99.90;;;;;;5004893;28;20208;-85
2022/06/24 07:53:46;;;;;;;8.57;3.10;;;18.30;99.90;;;;;;5007440;28;20179;-86
2022/06/24 07:58:56;;;;;;;7.40;2.40;;;18.50;99.90;;;;;;5009484;28;20210;-86
2022/06/24 08:01:22;;;;;;;5.50;2.70;;;;;;;;;;5006973;28;20212;-85
2022/06/24 08:03:48;;;;;;;8.87;3.07;;;18.30;99.90;;;;;;5008032;28;20244;-85
2022/06/24 08:06:13;;;;;;;6.43;2.40;;;18.80;99.90;;;;;;5007603;28;20172;-85
2022/06/24 08:08:39;;;;;;;6.10;2.47;;;18.50;99.90;;;;;;5008573;28;20172;-85
2022/06/24 08:11:06;;;;;;;9.10;2.50;;;;;;;;;;5012557;28;20272;-83
2022/06/24 08:13:32;;;;;;;7.90;3.10;;;;;;;;;;5017124;28;20176;-84
2022/06/24 08:15:58;;;;;;;7.33;2.83;;;18.60;99.90;;;;;;5010697;28;20199;-84
2022/06/24 08:18:25;;;;;;;10.07;2.70;;;18.70;99.90;;;;;;5001665;28;20627;-84
2022/06/24 08:20:51;;;;;;;6.13;2.50;;;18.70;99.90;;;;;;4999231;28;20553;-85
2022/06/24 08:23:17;;;;;;;5.17;2.30;;;18.80;99.90;;;;;;5000263;28;20230;-85
2022/06/24 08:25:43;;;;;;;5.83;2.50;;;;;;;;;;4998596;28;20227;-85
2022/06/24 08:28:08;;;;;;;8.47;2.40;;;18.90;99.90;;;;;;4997842;28;20172;-84
2022/06/24 08:30:34;;;;;;;5.40;2.63;;;18.90;99.90;;;;;;4996832;28;20200;-84
2022/06/24 08:33:01;;;;;;;8.10;2.70;;;19.00;99.90;;;;;;4997368;28;20516;-84
2022/06/24 08:35:27;;;;;;;10.83;2.77;;;;;;;;;;4995553;28;20176;-83
2022/06/24 08:37:53;;;;;;;11.90;3.20;;;19.20;99.90;;;;;;4995129;28;20215;-83
2022/06/24 08:40:20;;;;;;;10.60;2.27;;;19.50;99.90;;;;;;5011917;28;20212;-83
2022/06/24 08:42:52;;;;;;;5.27;2.00;;;19.50;99.90;;;;;;5019425;28;20241;-84
2022/06/24 08:45:19;;;;;;;7.43;2.60;;;19.50;99.90;;;;;;5007557;28;20567;-84
2022/06/24 08:47:48;;;;;;;7.83;2.90;;;19.60;99.90;;;;;;5005161;28;20199;-84
2022/06/24 08:50:15;;;;;;;7.37;2.37;;;;;;;;;;5005444;28;20666;-81
2022/06/24 08:52:49;;;;;;;7.07;2.20;;;19.60;99.90;;;;;;5003476;28;20705;-83
2022/06/24 08:55:19;;;;;;;4.60;2.20;;;19.90;99.90;;;;;;5004412;28;20548;-85
2022/06/24 08:57:46;;;;;;;8.00;2.57;;;20.00;99.90;;;;;;5004004;28;20182;-84
2022/06/24 09:00:13;;;;;;;7.50;2.70;;;19.90;99.90;;;;;;5004420;28;20223;-84
2022/06/24 09:02:39;;;;;;;8.60;2.53;;;;;;;;;;5009354;28;20279;-84
2022/06/24 09:05:10;;;;;;;6.90;2.23;;;20.40;99.90;;;;;;5009513;28;20261;-84
2022/06/24 09:07:36;;;;;;;6.93;2.40;;;;;;;;;;5007373;28;20181;-83
2022/06/24 09:10:05;;;;;;;8.60;2.47;;;20.20;99.90;;;;;;5008620;28;20197;-84
2022/06/24 09:12:40;;;;;;;8.20;2.67;;;20.20;99.90;;;;;;5007228;28;20188;-84
2022/06/24 09:15:08;;;;;;;5.37;2.00;;;20.30;99.90;;;;;;5009901;28;20643;-84
2022/06/24 09:17:34;;;;;;;8.13;2.33;;;20.70;99.90;;;;;;5008544;28;20215;-84
2022/06/24 09:20:23;;;;;;;12.47;2.50;;;20.60;99.90;;;;;;5008120;28;20202;-84
2022/06/24 09:22:50;;;;;;;8.60;2.83;;;20.70;99.90;;;;;;5008463;28;20216;-84
2022/06/24 09:25:17;;;;;;;7.80;2.17;;;;;;;;;;5010147;28;20180;-84
2022/06/24 09:27:46;;;;;;;6.03;2.70;;;20.80;99.90;;;;;;5008429;28;20190;-84
2022/06/24 09:30:16;;;;;;;4.93;2.23;;;21.00;99.90;;;;;;5009439;28;20206;-84
2022/06/24 09:32:52;;;;;;;5.13;2.10;;;20.90;99.90;;;;;;5009926;28;20190;-85
2022/06/24 09:35:19;;;;;;;6.10;2.40;;;20.70;99.90;;;;;;5010566;28;20183;-85
2022/06/24 09:37:50;;;;;;;9.77;2.80;;;20.70;99.90;;;;;;5009529;28;20228;-85
2022/06/24 09:40:19;;;;;;;5.73;2.27;;;20.60;99.90;;;;;;5010022;28;20204;-85
2022/06/24 09:43:04;;;;;;;10.53;2.70;;;20.40;99.90;;;;;;5013006;28;20186;-84
2022/06/24 09:45:44;;;;;;;7.90;2.87;;;20.60;99.90;;;;;;5021086;28;20186;-84
2022/06/24 09:48:11;;;;;;;7.10;1.97;;;20.60;99.90;;;;;;5014661;28;20181;-85
2022/06/24 09:50:39;;;;;;;8.57;2.60;;;20.60;99.90;;;;;;5008338;28;20676;-84
2022/06/24 09:53:05;;;;;;;6.17;2.43;;;20.70;99.90;;;;;;5004098;28;20736;-84
2022/06/24 09:55:31;;;;;;;10.50;2.70;;;;;;;;;;5003431;28;20183;-85
2022/06/24 09:57:59;;;;;;;8.33;2.53;;;21.10;99.90;;;;;;5002369;28;20187;-83
2022/06/24 10:00:41;;;;;;;4.90;2.10;;;21.40;99.90;;;;;;5004016;28;20739;-84
2022/06/24 10:03:12;;;;;;;10.70;2.83;;;21.60;99.90;;;;;;5004708;28;20160;-84
2022/06/24 10:05:41;;;;;;;8.27;2.20;;;21.70;99.90;;;;;;5007420;28;20189;-85
2022/06/24 10:08:10;;;;;;;8.80;2.57;;;21.50;99.90;;;;;;5004884;28;20184;-85
2022/06/24 10:10:38;;;;;;;7.43;2.30;;;21.50;99.90;;;;;;5003362;28;20206;-84
2022/06/24 10:13:09;;;;;;;7.83;2.57;;;21.80;99.90;;;;;;5003557;28;20732;-84
2022/06/24 10:15:35;;;;;;;6.90;2.40;;;21.80;99.90;;;;;;5004908;28;20202;-84
2022/06/24 10:18:08;;;;;;;6.60;2.20;;;21.80;99.90;;;;;;5003949;28;20267;-84
2022/06/24 10:20:34;;;;;;;5.33;2.10;;;21.60;99.90;;;;;;5004078;28;20211;-84
2022/06/24 10:23:00;;;;;;;10.67;2.43;;;21.90;99.90;;;;;;5003355;28;20215;-84
2022/06/24 10:25:48;;;;;;;11.17;2.27;;;22.00;99.90;;;;;;5004765;28;20190;-84
2022/06/24 10:28:13;;;;;;;5.53;2.27;;;22.20;99.90;;;;;;5005944;28;20225;-84
2022/06/24 10:30:39;;;;;;;10.07;2.47;;;22.30;99.90;;;;;;5005212;28;20616;-84
2022/06/24 10:33:17;;;;;;;9.63;2.27;;;22.40;99.90;;;;;;5002083;28;20187;-84
2022/06/24 10:36:02;;;;;;;6.90;2.07;;;22.30;99.90;;;;;;5001733;28;20195;-84
2022/06/24 10:38:36;;;;;;;9.00;1.93;;;22.70;99.90;;;;;;5001650;28;20179;-84
2022/06/24 10:41:04;;;;;;;6.00;2.07;;;22.70;99.90;;;;;;4999147;28;20227;-83
2022/06/24 10:43:38;;;;;;;8.00;2.33;;;22.70;99.90;;;;;;4998339;28;20180;-84
2022/06/24 10:46:13;;;;;;;6.77;2.07;;;22.60;99.90;;;;;;4997333;28;20175;-82
2022/06/24 10:48:51;;;;;;;7.70;2.43;;;22.50;99.90;;;;;;5012485;28;20199;-83
2022/06/24 10:51:21;;;;;;;6.67;2.27;;;22.40;99.90;;;;;;5020390;28;20180;-83
2022/06/24 10:54:02;;;;;;;7.70;1.93;;;22.40;99.90;;;;;;5008826;28;20188;-82
2022/06/24 10:56:48;;;;;;;8.87;2.03;;;22.30;99.90;;;;;;5009067;28;20175;-84
2022/06/24 10:59:19;;;;;;;6.97;2.10;;;22.10;99.90;;;;;;5002481;28;20269;-84
2022/06/24 11:01:50;;;;;;;8.73;2.33;;;22.20;99.90;;;;;;4999314;28;20609;-82
2022/06/24 11:04:25;;;;;;;4.70;1.80;;;22.10;99.90;;;;;;4999881;28;20176;-82
2022/06/24 11:07:10;;;;;;;5.53;2.40;;;22.10;99.90;;;;;;4999345;28;20175;-82
2022/06/24 11:09:37;;;;;;;5.23;2.03;;;22.00;99.90;;;;;;5001076;28;20219;-82
2022/06/24 11:12:05;;;;;;;5.83;1.93;;;22.00;99.90;;;;;;5001359;28;20176;-83
2022/06/24 11:14:30;;;;;;;7.43;2.43;;;22.00;99.90;;;;;;4999959;28;20194;-82
2022/06/24 11:16:56;;;;;;;6.37;1.57;;;;;;;;;;5002372;28;20180;-82
2022/06/24 11:19:22;;;;;;;5.77;1.90;;;;;;;;;;5005900;28;20176;-82
2022/06/24 11:21:49;;;;;;;7.20;2.23;;;21.60;99.90;;;;;;5010393;28;20209;-82
2022/06/24 11:24:19;;;;;;;5.73;2.20;;;21.50;99.90;;;;;;5012016;28;20172;-83
2022/06/24 11:27:09;;;;;;;5.10;2.20;;;21.10;99.90;;;;;;5006159;28;20210;-84
2022/06/24 11:29:57;;;;;;;9.20;2.00;;;21.30;99.90;;;;;;5000293;28;20204;-84
2022/06/24 11:32:24;;;;;;;7.03;2.07;;;21.30;99.90;;;;;;4999849;28;20167;-86
2022/06/24 11:34:50;;;;;;;7.70;2.47;;;21.10;99.90;;;;;;4999433;28;20203;-86
2022/06/24 11:37:23;;;;;;;7.53;2.63;;;21.10;99.90;;;;;;4998679;28;20187;-86
2022/06/24 11:39:58;;;;;;;6.80;2.00;;;20.90;99.90;;;;;;5001043;28;20211;-87
2022/06/24 11:42:24;;;;;;;9.50;2.20;;;20.80;99.90;;;;;;5003394;28;20659;-85
2022/06/24 11:44:51;;;;;;;7.83;2.57;;;20.80;99.90;;;;;;5003172;28;20208;-84
2022/06/24 11:47:31;;;;;;;7.03;2.60;;;20.80;99.90;;;;;;5002253;28;20179;-85
2022/06/24 11:49:57;;;;;;;4.30;2.00;;;20.60;99.90;;;;;;5002144;28;20195;-86
2022/06/24 11:52:23;;;;;;;10.53;2.73;;;20.60;99.90;;;;;;5006062;28;20198;-81
2022/06/24 11:54:49;;;;;;;5.23;2.60;;;20.50;99.90;;;;;;5006261;28;20689;-83
2022/06/24 11:57:15;;;;;;;8.10;2.37;;;20.40;99.90;;;;;;5007611;28;20657;-83
2022/06/24 11:59:42;;;;;;;8.60;2.03;;;20.30;99.90;;;;;;5004945;28;20296;-82
2022/06/24 12:02:11;;;;;;;4.10;2.40;;;20.20;99.90;;;;;;5004997;28;20214;-82
2022/06/24 12:04:37;;;;;;;9.23;2.30;;;20.20;99.90;;;;;;5003197;28;20171;-82
2022/06/24 12:07:06;;;;;;;8.47;2.60;;;20.10;99.90;;;;;;5003774;28;20267;-81
2022/06/24 12:09:33;;;;;;;11.97;2.77;;;20.00;99.90;;;;;;5003227;28;20246;-81
2022/06/24 12:12:09;;;;;;;10.30;2.90;;;20.00;99.90;;;;;;5003511;28;20197;-85
2022/06/24 12:14:35;;;;;;;5.90;2.20;;;19.90;99.90;;;;;;5002228;28;20191;-85
2022/06/24 12:17:06;;;;;;;6.93;2.20;;;19.80;99.90;;;;;;5000654;28;20186;-86
2022/06/24 12:19:34;;;;;;;12.02;3.05;;;19.60;99.90;;;;;;5000005;28;20862;-86
2022/06/24 12:22:09;;;;;;;8.83;3.03;;;19.60;99.90;;;;;;5000206;28;20282;-85
2022/06/24 12:24:35;;;;;;;13.17;3.20;;;19.50;99.90;;;;;;5001266;28;20707;-85
2022/06/24 12:27:03;;;;;;;5.67;2.37;;;19.40;99.90;;;;;;5003077;28;20172;-85
2022/06/24 12:29:35;;;;;;;6.00;2.57;;;18.90;99.90;;;;;;5000533;28;20207;-85
2022/06/24 12:32:03;;;;;;;10.93;3.33;;;18.90;99.90;;;;;;5002826;28;20245;-82
2022/06/24 12:34:35;;;;;;;7.53;2.80;;;18.70;99.90;;;;;;5002650;28;20183;-87
2022/06/24 12:37:06;;;;;;;4.47;2.17;;;18.40;99.90;;;;;;5004370;28;20168;-84
2022/06/24 12:39:40;;;;;;;6.60;1.77;;;17.80;99.90;;;;;;5002365;28;20691;-83
2022/06/24 12:42:07;;;;;;;7.50;2.30;;;17.80;99.90;;;;;;5005273;28;20234;-84
2022/06/24 12:44:52;;;;;;;8.60;2.83;;;17.60;99.90;;;;;;5002962;28;20178;-83
2022/06/24 12:53:02;;;;;;;6.47;3.10;;;17.40;99.90;;;;;;4997339;28;20682;-82
2022/06/24 12:55:30;;;;;;;10.37;3.70;;;17.30;99.90;;;;;;5002184;28;20185;-84
2022/06/24 12:57:56;;;;;;;11.77;3.30;;;17.20;99.90;;;;;;5017435;28;20166;-85
2022/06/24 13:00:22;;;;;;;7.03;3.50;;;17.30;99.90;;;;;;5018819;28;20188;-84
2022/06/24 13:02:53;;;;;;;10.23;3.60;;;17.30;99.90;;;;;;5011197;28;20227;-84
2022/06/24 13:05:19;;;;;;;9.83;3.70;;;17.30;99.90;;;;;;5002494;28;20242;-82
2022/06/24 13:07:46;;;;;;;9.47;3.30;;;17.20;99.90;;;;;;5001999;28;20180;-83
2022/06/24 13:10:12;;;;;;;7.63;3.10;;;17.10;99.90;;;;;;5001771;28;20203;-81
2022/06/24 13:12:41;;;;;;;7.23;3.20;;;16.90;99.90;;;;;;4997918;28;20541;-82
2022/06/24 13:15:09;;;;;;;6.87;3.07;;;16.80;99.90;;;;;;5000981;28;20211;-82
2022/06/24 13:17:35;;;;;;;7.27;2.83;;;16.80;99.90;;;;;;5001169;28;20188;-83
2022/06/24 13:20:02;;;;;;;5.43;3.50;;;16.80;99.90;;;;;;5000653;28;20209;-82